ADDS METAR Data INFO
IDs: Format: Raw Decoded Include TAF

Data at: 1551 UTC 24 Sep 2017

KECS 241535Z AUTO 34010KT 10SM SCT080 07/03 A3003 RMK AO2
KECS 241515Z AUTO 34011KT 10SM BKN080 06/03 A3003 RMK AO2
KECS 241455Z AUTO 33010KT 10SM SCT080 06/05 A3003 RMK AO2
KECS 241435Z AUTO 34008KT 10SM CLR 06/05 A3003 RMK AO2
KECS 241415Z AUTO 34009KT 10SM CLR 06/05 A3003 RMK AO2
KECS 241355Z AUTO 34009KT 10SM SCT050 05/05 A3003 RMK AO2
KECS 241335Z AUTO 33009KT 10SM -RA SCT009 SCT026 OVC050 05/04 A3002 RMK AO2
KECS 241315Z AUTO 32008KT 10SM -RA SCT011 SCT016 BKN050 05/04 A3003 RMK AO2
KECS 241255Z AUTO 32010KT 10SM RA SCT013 SCT019 OVC047 05/04 A3002 RMK AO2
KECS 241235Z AUTO 32008KT 10SM OVC049 05/04 A3002 RMK AO2
KECS 241215Z AUTO 32007KT 10SM OVC049 06/02 A3000 RMK AO2
KECS 241155Z AUTO 33007KT 10SM BKN049 OVC060 06/03 A3000 RMK AO2
KECS 241135Z AUTO 32006KT 10SM SCT047 BKN060 BKN080 05/04 A3000 RMK AO2
KECS 241115Z AUTO 32006KT 10SM SCT060 BKN080 05/04 A2999 RMK AO2
KECS 241055Z AUTO 33007KT 10SM SCT075 BKN080 05/04 A2998 RMK AO2
KECS 241035Z AUTO 35006KT 10SM OVC065 05/05 A2998 RMK AO2
KECS 241015Z AUTO 33007KT 10SM SCT046 OVC065 05/05 A2998 RMK AO2
KECS 240955Z AUTO 33007KT 10SM SCT040 BKN046 OVC065 06/05 A2998 RMK AO2
KECS 240935Z AUTO 31007KT 292V352 10SM OVC038 06/05 A3000 RMK AO2
KECS 240915Z AUTO 33006KT 10SM OVC038 06/05 A2999 RMK AO2
KECS 240855Z AUTO 34006KT 10SM OVC036 06/05 A3000 RMK AO2
KECS 240835Z AUTO 33006KT 10SM SCT007 SCT016 OVC038 06/05 A3001 RMK AO2
KECS 240815Z AUTO 34007KT 5SM BR SCT007 BKN010 OVC016 06/05 A3001 RMK AO2
KECS 240755Z AUTO 33006KT 10SM SCT005 OVC030 06/05 A3000 RMK AO2
KECS 240735Z AUTO 33007KT 10SM SCT004 OVC028 06/05 A3000 RMK AO2
KECS 240715Z AUTO 33007KT 10SM SCT005 OVC022 06/06 A3001 RMK AO2
KECS 240655Z AUTO 34009KT 5SM BR BKN005 OVC014 06/06 A2998 RMK AO2
KECS 240635Z AUTO 33006KT 10SM BKN005 BKN010 OVC015 06/06 A3001 RMK AO2
KECS 240615Z AUTO 27012G17KT 10SM BKN005 BKN013 OVC019 06/06 A3002 RMK AO2
KECS 240555Z AUTO 27008KT 10SM SCT003 BKN014 OVC019 06/06 A3000 RMK AO2
KECS 240535Z AUTO 26010G14KT 10SM BKN003 OVC008 06/06 A3001 RMK AO2
KECS 240515Z AUTO 26005KT 10SM BKN004 BKN008 OVC015 06/06 A2998 RMK AO2
KECS 240455Z AUTO 24007KT 10SM -RA SCT004 SCT015 06/06 A3000 RMK AO2
KECS 240435Z AUTO 00000KT 10SM RA BKN006 06/06 A3000 RMK AO2
KECS 240415Z AUTO 00000KT 10SM -RA BKN006 OVC011 06/06 A3001 RMK AO2
KECS 240355Z AUTO 15005KT 10SM -RA BKN006 OVC011 06/06 A3002 RMK AO2
KECS 240335Z AUTO 15008KT 5SM -RA SCT004 OVC013 06/06 A3002 RMK AO2
KECS 240315Z AUTO 00000KT 10SM OVC013 06/06 A3002 RMK AO2
KECS 240255Z AUTO 15003KT 10SM RA OVC015 06/06 A3004 RMK AO2
KECS 240235Z AUTO 00000KT 10SM RA SCT003 OVC015 06/06 A3004 RMK AO2
KECS 240215Z AUTO 00000KT 7SM -RA SCT003 OVC015 06/06 A3004 RMK AO2
KECS 240155Z AUTO 18003KT 10SM DZ SCT005 SCT008 BKN015 06/06 A3004 RMK AO2
KECS 240135Z AUTO 14005KT 10SM -RA SCT005 SCT010 OVC017 06/06 A3003 RMK AO2
KECS 240115Z AUTO 14006KT 10SM DZ BKN009 BKN013 OVC024 07/06 A3003 RMK AO2
KECS 240055Z AUTO 15004KT 10SM DZ BKN011 OVC014 07/06 A3002 RMK AO2
KECS 240035Z AUTO 14003KT 10SM RA BKN011 BKN016 OVC036 07/06 A3001 RMK AO2
KECS 240015Z AUTO 17006KT 10SM -RA OVC014 07/06 A3001 RMK AO2
KECS 232355Z AUTO 16004KT 7SM -RA SCT005 SCT010 OVC016 07/06 A3003 RMK AO2
KECS 232335Z AUTO 30003KT 5SM -RA SCT005 OVC014 06/06 A3002 RMK AO2
KECS 232315Z AUTO 00000KT 4SM RA BKN012 OVC024 07/06 A3003 RMK AO2
KECS 232255Z AUTO 13004KT 5SM DZ BKN010 BKN015 BKN025 07/07 A3003 RMK AO2
KECS 232235Z AUTO 14004KT 10SM SCT008 SCT013 BKN025 07/07 A3002 RMK AO2 LTG DSNT E
KECS 232215Z AUTO 15003KT 7SM RA SCT007 BKN012 OVC023 07/07 A3000 RMK AO2
KECS 232155Z AUTO 00000KT 5SM RA BKN009 OVC014 07/06 A3001 RMK AO2
KECS 232135Z AUTO 13003KT 4SM RA BKN008 BKN014 OVC019 07/06 A3002 RMK AO2
KECS 232115Z AUTO 31003KT 5SM -RA SCT007 BKN012 OVC018 06/06 A3002 RMK AO2
KECS 232055Z AUTO 36005KT 7SM -RA SCT007 BKN012 OVC018 06/06 A3002 RMK AO2
KECS 232035Z AUTO 34004KT 2 1/2SM RA BKN005 OVC011 06/06 A3002 RMK AO2
KECS 232015Z AUTO 32005KT 2 1/2SM -RA SCT005 SCT008 OVC012 06/06 A3004 RMK AO2
KECS 231955Z AUTO 29004KT 1 3/4SM +RA OVC010 06/06 A3004 RMK AO2
KECS 231935Z AUTO 26005KT 4SM UP OVC008 06/05 A3005 RMK AO2 LTG DSNT N
KECS 231915Z AUTO 29005KT 7SM OVC010 06/06 A3004 RMK AO2 LTG DSNT NE
KECS 231855Z AUTO 31005KT 4SM -DZ OVC010 07/06 A3002 RMK AO2 LTG DSNT NE
KECS 231835Z AUTO 28006KT 5SM -RA BKN010 OVC029 07/06 A3003 RMK AO2
KECS 231815Z AUTO 31005KT 10SM SCT008 OVC029 07/06 A3003 RMK AO2
KECS 231755Z AUTO 31008G15KT 292V352 10SM BKN036 OVC043 07/05 A3003 RMK AO2
KECS 231735Z AUTO 30008G17KT 10SM SCT040 OVC048 07/05 A3003 RMK AO2
KECS 231715Z AUTO 30007KT 10SM OVC050 08/05 A3003 RMK AO2
KECS 231655Z AUTO 33008KT 10SM SCT006 OVC050 07/05 A3003 RMK AO2
KECS 231635Z AUTO 33008KT 10SM BKN008 BKN033 OVC050 07/06 A3003 RMK AO2
KECS 231615Z AUTO 34006KT 10SM OVC008 06/05 A3004 RMK AO2
KECS 231555Z AUTO 00000KT 10SM OVC008 05/04 A3008 RMK AO2
KECS 231535Z AUTO 00000KT 10SM OVC008 05/04 A3009 RMK AO2
KECS 231515Z AUTO 00000KT 10SM OVC008 05/04 A3009 RMK AO2
KECS 231455Z AUTO 21007KT 10SM OVC008 05/05 A3009 RMK AO2
KECS 231435Z AUTO 15003KT 5SM BR OVC008 05/05 A3008 RMK AO2
KECS 231415Z AUTO 13004KT 7SM OVC010 05/05 A3007 RMK AO2
KECS 231355Z AUTO 14004KT 10SM OVC010 05/05 A3008 RMK AO2
KECS 231335Z AUTO 14003KT 10SM OVC008 05/04 A3007 RMK AO2
KECS 231315Z AUTO 14005KT 10SM OVC008 05/04 A3007 RMK AO2
KECS 231255Z AUTO 17005KT 10SM OVC008 05/04 A3006 RMK AO2
KECS 231235Z AUTO 16006KT 10SM -DZ BKN010 OVC014 05/05 A3007 RMK AO2
KECS 231215Z AUTO 16005KT 10SM SCT010 BKN013 BKN019 05/04 A3004 RMK AO2
KECS 231155Z AUTO 15006KT 10SM SCT013 04/04 A3003 RMK AO2
KECS 231135Z AUTO 14005KT 10SM SCT032 05/04 A3002 RMK AO2
KECS 231115Z AUTO 13005KT 10SM SCT006 OVC032 05/04 A3003 RMK AO2
KECS 231055Z AUTO 13007KT 10SM SCT006 SCT009 OVC032 05/04 A3003 RMK AO2
KECS 231035Z AUTO 12004KT 10SM BKN006 OVC009 04/04 A3005 RMK AO2 LTG DSNT E
KECS 231015Z AUTO 20010KT 10SM OVC008 05/04 A3006 RMK AO2
KECS 230955Z AUTO 17005KT 10SM OVC006 04/04 A3004 RMK AO2
KECS 230935Z AUTO 15004KT 10SM OVC006 04/04 A3004 RMK AO2
KECS 230915Z AUTO 20009KT 10SM BKN006 BKN021 OVC033 05/04 A3005 RMK AO2
KECS 230855Z AUTO 21009KT 10SM SCT006 SCT021 OVC033 05/04 A3003 RMK AO2
KECS 230835Z AUTO 20010KT 10SM BKN006 OVC021 05/04 A3002 RMK AO2
KECS 230815Z AUTO 00000KT 10SM OVC021 05/05 A3002 RMK AO2
KECS 230755Z AUTO 18003KT 10SM OVC021 05/04 A3002 RMK AO2
KECS 230735Z AUTO 00000KT 10SM BKN021 05/04 A3000 RMK AO2
KECS 230715Z AUTO 00000KT 10SM BKN021 05/04 A3000 RMK AO2
KECS 230655Z AUTO 00000KT 10SM SCT021 05/04 A3000 RMK AO2
KECS 230635Z AUTO 00000KT 10SM CLR 05/04 A3000 RMK AO2
KECS 230615Z AUTO 30008KT 272V352 10SM CLR 05/04 A2999 RMK AO2
KECS 230555Z AUTO 34009KT 10SM CLR 06/05 A2997 RMK AO2
KECS 230535Z AUTO 33006KT 10SM CLR 06/05 A2997 RMK AO2
KECS 230515Z AUTO 32007KT 10SM CLR 06/06 A2997 RMK AO2
KECS 230455Z AUTO 30007KT 282V352 10SM CLR 07/06 A2998 RMK AO2
KECS 230435Z AUTO 30004KT 10SM CLR 08/08 A2995 RMK AO2
KECS 230415Z AUTO 30003KT 10SM CLR 08/08 A2993 RMK AO2
KECS 230355Z AUTO 00000KT 10SM SCT008 SCT012 SCT017 08/08 A2993 RMK AO2